BER31G LFMN-EDDH
Flight info
| Callsign | BER31G |
|---|---|
| Flight time | 1h 19m |
| Altitude | 34000 |
| Route | IRMAR DCT KINES DCT VANAS DCT MOBLO DCT UBIMA DCT GILIR DCT PENDU DCT UZCUX DCT SOSAD DCT OBOKA DCT BASUM Y850 MUBZI M105 RIBSO RIBSO3D |
| Aircraft | B738/M-SDE2E3FGHIRWXY/LB1 |
Departure
| Time | 2026-05-01 13:07 |
|---|---|
| Airport | Nice-Côte d'Azur Airport (LFMN) |
Arrival
| Time | 2026-05-01 14:27 |
|---|---|
| Airport | Hamburg Helmut Schmidt Airport (EDDH) |
| Time | Latitude | Longitude | Altitude | Speed | Heading |
|---|---|---|---|---|---|
| 2026-05-01 12:24 | 43.65924 | 7.20700 | 22 ft | 0 kts | 293° |
| 2026-05-01 12:55 | 43.65920 | 7.20711 | 24 ft | 3 kts | 293° |
| 2026-05-01 12:55 | 43.65912 | 7.20737 | 23 ft | 3 kts | 293° |
| 2026-05-01 12:55 | 43.65906 | 7.20759 | 23 ft | 3 kts | 303° |
| 2026-05-01 12:56 | 43.65893 | 7.20778 | 22 ft | 3 kts | 336° |
| 2026-05-01 12:56 | 43.65875 | 7.20783 | 21 ft | 3 kts | 10° |
| 2026-05-01 12:56 | 43.65858 | 7.20776 | 21 ft | 1 kts | 28° |
| 2026-05-01 12:56 | 43.65853 | 7.20772 | 21 ft | 0 kts | 28° |
| 2026-05-01 13:01 | 43.65860 | 7.20777 | 21 ft | 3 kts | 28° |
| 2026-05-01 13:01 | 43.65870 | 7.20827 | 21 ft | 7 kts | 112° |
| 2026-05-01 13:01 | 43.65786 | 7.20870 | 21 ft | 6 kts | 170° |
| 2026-05-01 13:02 | 43.65744 | 7.20854 | 21 ft | 7 kts | 215° |
| 2026-05-01 13:07 | 43.67389 | 7.25875 | 1602 ft | 182 kts | 116° |
| 2026-05-01 13:07 | 43.66445 | 7.27064 | 2214 ft | 191 kts | 155° |
| 2026-05-01 13:07 | 43.65216 | 7.27845 | 2765 ft | 202 kts | 145° |
| 2026-05-01 13:08 | 43.64095 | 7.29028 | 3228 ft | 208 kts | 138° |
| 2026-05-01 13:08 | 43.62966 | 7.30334 | 3742 ft | 213 kts | 138° |
| 2026-05-01 13:08 | 43.61773 | 7.31555 | 4350 ft | 215 kts | 152° |
| 2026-05-01 13:08 | 43.60276 | 7.31859 | 4822 ft | 226 kts | 190° |
| 2026-05-01 13:09 | 43.58826 | 7.30882 | 5191 ft | 241 kts | 214° |
| 2026-05-01 13:09 | 43.57430 | 7.29577 | 5763 ft | 242 kts | 212° |
| 2026-05-01 13:09 | 43.55988 | 7.28263 | 6133 ft | 254 kts | 220° |
| 2026-05-01 13:09 | 43.54908 | 7.26300 | 6307 ft | 276 kts | 252° |
| 2026-05-01 13:10 | 43.54801 | 7.23667 | 6748 ft | 279 kts | 288° |
| 2026-05-01 13:10 | 43.55777 | 7.21428 | 7465 ft | 274 kts | 317° |
| 2026-05-01 13:10 | 43.57108 | 7.19507 | 8127 ft | 279 kts | 314° |
| 2026-05-01 13:10 | 43.58347 | 7.17437 | 8858 ft | 282 kts | 311° |
| 2026-05-01 13:11 | 43.59573 | 7.15290 | 9507 ft | 287 kts | 311° |
| 2026-05-01 13:11 | 43.60888 | 7.13204 | 10195 ft | 288 kts | 325° |
| 2026-05-01 13:11 | 43.62672 | 7.11952 | 10601 ft | 296 kts | 342° |
| 2026-05-01 13:11 | 43.64703 | 7.11027 | 10755 ft | 318 kts | 343° |
| 2026-05-01 13:12 | 43.66887 | 7.10088 | 10913 ft | 338 kts | 344° |
| 2026-05-01 13:12 | 43.69183 | 7.09107 | 11318 ft | 349 kts | 344° |
| 2026-05-01 13:12 | 43.71335 | 7.08181 | 11821 ft | 354 kts | 344° |
| 2026-05-01 13:12 | 43.73338 | 7.07310 | 12390 ft | 356 kts | 344° |
| 2026-05-01 13:13 | 43.75676 | 7.06286 | 13055 ft | 359 kts | 344° |
| 2026-05-01 13:13 | 43.78071 | 7.05231 | 13699 ft | 363 kts | 344° |
| 2026-05-01 13:13 | 43.80486 | 7.04162 | 14364 ft | 366 kts | 344° |
| 2026-05-01 13:13 | 43.82929 | 7.03079 | 14960 ft | 370 kts | 344° |
| 2026-05-01 13:14 | 43.85402 | 7.01981 | 15565 ft | 375 kts | 343° |
| 2026-05-01 13:14 | 43.87895 | 7.00873 | 16205 ft | 378 kts | 343° |
| 2026-05-01 13:14 | 43.90430 | 6.99744 | 16601 ft | 386 kts | 344° |
| 2026-05-01 13:14 | 43.92995 | 6.98601 | 16827 ft | 386 kts | 343° |
| 2026-05-01 13:15 | 43.95550 | 6.97460 | 17089 ft | 386 kts | 344° |
| 2026-05-01 13:15 | 43.98130 | 6.96308 | 17548 ft | 392 kts | 344° |
| 2026-05-01 13:15 | 44.00730 | 6.95147 | 18232 ft | 393 kts | 344° |
| 2026-05-01 13:15 | 44.03339 | 6.93979 | 18850 ft | 395 kts | 344° |
| 2026-05-01 13:16 | 44.05969 | 6.92801 | 19409 ft | 397 kts | 344° |
| 2026-05-01 13:16 | 44.08613 | 6.91617 | 19965 ft | 400 kts | 344° |
| 2026-05-01 13:16 | 44.11270 | 6.90426 | 20496 ft | 403 kts | 344° |
| 2026-05-01 13:17 | 44.19474 | 6.87965 | 22033 ft | 408 kts | 356° |
| 2026-05-01 13:17 | 44.22318 | 6.87612 | 22521 ft | 411 kts | 357° |
| 2026-05-01 13:18 | 44.28065 | 6.86899 | 23423 ft | 418 kts | 355° |
| 2026-05-01 13:18 | 44.30970 | 6.86503 | 23924 ft | 420 kts | 356° |
| 2026-05-01 13:18 | 44.33878 | 6.86086 | 24370 ft | 421 kts | 355° |
| 2026-05-01 13:18 | 44.36807 | 6.85650 | 24714 ft | 425 kts | 354° |
| 2026-05-01 13:19 | 44.39754 | 6.85204 | 25117 ft | 426 kts | 354° |
| 2026-05-01 13:19 | 44.42702 | 6.84755 | 25574 ft | 426 kts | 354° |
| 2026-05-01 13:19 | 44.48649 | 6.83848 | 26031 ft | 437 kts | 354° |
| 2026-05-01 13:20 | 44.51693 | 6.83383 | 26363 ft | 440 kts | 353° |
| 2026-05-01 13:20 | 44.54735 | 6.82917 | 26799 ft | 440 kts | 353° |
| 2026-05-01 13:20 | 44.57791 | 6.82450 | 27182 ft | 442 kts | 353° |
| 2026-05-01 13:21 | 44.63940 | 6.81510 | 27809 ft | 447 kts | 353° |
| 2026-05-01 13:21 | 44.67037 | 6.81036 | 28128 ft | 449 kts | 353° |
| 2026-05-01 13:21 | 44.70112 | 6.80564 | 28458 ft | 451 kts | 353° |
| 2026-05-01 13:21 | 44.73232 | 6.80085 | 28778 ft | 453 kts | 353° |
| 2026-05-01 13:22 | 44.76375 | 6.79602 | 29094 ft | 455 kts | 353° |
| 2026-05-01 13:22 | 44.79524 | 6.79118 | 29393 ft | 457 kts | 353° |
| 2026-05-01 13:22 | 44.82696 | 6.78633 | 29690 ft | 458 kts | 353° |
| 2026-05-01 13:22 | 44.85863 | 6.78157 | 30052 ft | 458 kts | 353° |
| 2026-05-01 13:23 | 44.89027 | 6.77691 | 30497 ft | 456 kts | 353° |
| 2026-05-01 13:23 | 44.92172 | 6.77231 | 30892 ft | 453 kts | 353° |
| 2026-05-01 13:23 | 44.95304 | 6.76773 | 31311 ft | 451 kts | 353° |
| 2026-05-01 13:23 | 44.98419 | 6.76319 | 31663 ft | 448 kts | 353° |
| 2026-05-01 13:24 | 45.01519 | 6.75868 | 31996 ft | 447 kts | 353° |
| 2026-05-01 13:24 | 45.04576 | 6.75424 | 32363 ft | 446 kts | 353° |
| 2026-05-01 13:24 | 45.07653 | 6.74982 | 32738 ft | 443 kts | 353° |
| 2026-05-01 13:25 | 45.13789 | 6.74320 | 33362 ft | 443 kts | 3° |
| 2026-05-01 13:25 | 45.16823 | 6.75114 | 33704 ft | 444 kts | 17° |
| 2026-05-01 13:25 | 45.19671 | 6.76813 | 34059 ft | 445 kts | 27° |
| 2026-05-01 13:25 | 45.22394 | 6.78954 | 34223 ft | 448 kts | 27° |
| 2026-05-01 13:26 | 45.25123 | 6.81102 | 34309 ft | 448 kts | 27° |
| 2026-05-01 13:26 | 45.30582 | 6.85358 | 34307 ft | 447 kts | 27° |
| 2026-05-01 13:27 | 45.36059 | 6.89582 | 34302 ft | 448 kts | 26° |
| 2026-05-01 13:27 | 45.44288 | 6.95910 | 34315 ft | 449 kts | 27° |
| 2026-05-01 13:28 | 45.52507 | 7.02249 | 34318 ft | 451 kts | 27° |
| 2026-05-01 13:29 | 45.63588 | 7.10832 | 34337 ft | 454 kts | 27° |
| 2026-05-01 13:31 | 45.80258 | 7.23820 | 34291 ft | 455 kts | 28° |
| 2026-05-01 13:32 | 45.94108 | 7.34679 | 34297 ft | 454 kts | 28° |
| 2026-05-01 13:33 | 46.07944 | 7.45588 | 34231 ft | 453 kts | 28° |
| 2026-05-01 13:34 | 46.18969 | 7.54327 | 34307 ft | 450 kts | 28° |
| 2026-05-01 13:35 | 46.27159 | 7.60845 | 34308 ft | 449 kts | 28° |
| 2026-05-01 13:36 | 46.35374 | 7.67403 | 34304 ft | 449 kts | 28° |
| 2026-05-01 13:36 | 46.43574 | 7.73974 | 34306 ft | 448 kts | 28° |
| 2026-05-01 13:37 | 46.48999 | 7.78335 | 34284 ft | 449 kts | 28° |
| 2026-05-01 13:37 | 46.54463 | 7.82736 | 34281 ft | 449 kts | 28° |
| 2026-05-01 13:38 | 46.62672 | 7.89370 | 34265 ft | 450 kts | 28° |
| 2026-05-01 13:39 | 46.68152 | 7.93810 | 34269 ft | 450 kts | 28° |
| 2026-05-01 13:39 | 46.73626 | 7.98254 | 34265 ft | 451 kts | 29° |
| 2026-05-01 13:40 | 46.79071 | 8.02685 | 34266 ft | 450 kts | 29° |
| 2026-05-01 13:40 | 46.84544 | 8.07151 | 34268 ft | 450 kts | 28° |
| 2026-05-01 13:41 | 46.90019 | 8.11629 | 34268 ft | 450 kts | 29° |
| 2026-05-01 13:41 | 46.95474 | 8.16100 | 34268 ft | 450 kts | 28° |
| 2026-05-01 13:42 | 47.00944 | 8.20595 | 34268 ft | 449 kts | 28° |
| 2026-05-01 13:42 | 47.06357 | 8.25054 | 34297 ft | 447 kts | 28° |
| 2026-05-01 13:43 | 47.11739 | 8.29496 | 34272 ft | 441 kts | 29° |
| 2026-05-01 13:43 | 47.17092 | 8.33925 | 34278 ft | 440 kts | 29° |
| 2026-05-01 13:44 | 47.22419 | 8.38344 | 34277 ft | 439 kts | 29° |
| 2026-05-01 13:44 | 47.27744 | 8.42771 | 34279 ft | 439 kts | 29° |
| 2026-05-01 13:45 | 47.37688 | 8.51066 | 34289 ft | 441 kts | 29° |
| 2026-05-01 13:45 | 47.51185 | 8.62382 | 34306 ft | 441 kts | 29° |
| 2026-05-01 13:46 | 47.70601 | 8.78780 | 34296 ft | 442 kts | 30° |
| 2026-05-01 13:46 | 47.91960 | 8.96986 | 34309 ft | 441 kts | 29° |
| 2026-05-01 13:47 | 48.13245 | 9.15305 | 34297 ft | 439 kts | 29° |
| 2026-05-01 13:47 | 48.24868 | 9.19822 | 34321 ft | 436 kts | 4° |
| 2026-05-01 13:47 | 48.36802 | 9.21577 | 34305 ft | 436 kts | 7° |
| 2026-05-01 13:48 | 48.60909 | 9.25746 | 34298 ft | 436 kts | 6° |
| 2026-05-01 13:48 | 48.85066 | 9.29447 | 34298 ft | 435 kts | 6° |
| 2026-05-01 13:49 | 49.09160 | 9.33161 | 34289 ft | 435 kts | 6° |
| 2026-05-01 13:49 | 49.33255 | 9.36909 | 34291 ft | 435 kts | 6° |
| 2026-05-01 13:50 | 49.57340 | 9.40694 | 34295 ft | 435 kts | 6° |
| 2026-05-01 13:50 | 49.77366 | 9.43878 | 34326 ft | 434 kts | 6° |
| 2026-05-01 13:51 | 50.01441 | 9.47749 | 34326 ft | 434 kts | 5° |
| 2026-05-01 13:51 | 50.25502 | 9.51910 | 34341 ft | 435 kts | 6° |
| 2026-05-01 13:52 | 50.49587 | 9.56213 | 34335 ft | 435 kts | 6° |
| 2026-05-01 13:52 | 50.64227 | 9.58844 | 34341 ft | 436 kts | 6° |
| 2026-05-01 13:53 | 50.70235 | 9.59929 | 34348 ft | 437 kts | 6° |
| 2026-05-01 13:53 | 50.79307 | 9.61573 | 34343 ft | 438 kts | 6° |
| 2026-05-01 13:54 | 50.85368 | 9.62676 | 34345 ft | 438 kts | 6° |
| 2026-05-01 13:54 | 50.91438 | 9.63781 | 34328 ft | 439 kts | 6° |
| 2026-05-01 13:55 | 50.97509 | 9.64890 | 34324 ft | 440 kts | 6° |
| 2026-05-01 13:55 | 51.03594 | 9.66005 | 34336 ft | 440 kts | 6° |
| 2026-05-01 13:56 | 51.09651 | 9.67118 | 34342 ft | 440 kts | 6° |
| 2026-05-01 13:56 | 51.15739 | 9.68239 | 34329 ft | 440 kts | 6° |
| 2026-05-01 13:57 | 51.18801 | 9.68802 | 33748 ft | 451 kts | 6° |
| 2026-05-01 13:57 | 51.21959 | 9.69362 | 33231 ft | 451 kts | 6° |
| 2026-05-01 13:57 | 51.25011 | 9.69903 | 33517 ft | 435 kts | 6° |
| 2026-05-01 13:57 | 51.28010 | 9.70397 | 33385 ft | 431 kts | 6° |
| 2026-05-01 13:58 | 51.30943 | 9.70888 | 33354 ft | 417 kts | 6° |
| 2026-05-01 13:58 | 51.33810 | 9.71359 | 33381 ft | 413 kts | 6° |
| 2026-05-01 13:58 | 51.39616 | 9.72244 | 33555 ft | 424 kts | 5° |
| 2026-05-01 13:59 | 51.42568 | 9.72686 | 33680 ft | 429 kts | 6° |
| 2026-05-01 13:59 | 51.45553 | 9.73158 | 33785 ft | 434 kts | 6° |
| 2026-05-01 13:59 | 51.48570 | 9.73664 | 33929 ft | 437 kts | 6° |
| 2026-05-01 13:59 | 51.51601 | 9.74238 | 34118 ft | 440 kts | 7° |
| 2026-05-01 14:00 | 51.54612 | 9.74832 | 34233 ft | 439 kts | 7° |
| 2026-05-01 14:00 | 51.57621 | 9.75425 | 34319 ft | 434 kts | 7° |
| 2026-05-01 14:00 | 51.63678 | 9.76593 | 34358 ft | 442 kts | 7° |
| 2026-05-01 14:01 | 51.69841 | 9.77763 | 34349 ft | 447 kts | 7° |
| 2026-05-01 14:01 | 51.76050 | 9.78943 | 34352 ft | 450 kts | 7° |
| 2026-05-01 14:02 | 51.82261 | 9.80130 | 34332 ft | 446 kts | 7° |
| 2026-05-01 14:02 | 51.88374 | 9.81301 | 34351 ft | 441 kts | 7° |
| 2026-05-01 14:03 | 51.94437 | 9.82464 | 34353 ft | 441 kts | 7° |
| 2026-05-01 14:03 | 52.00545 | 9.83639 | 34335 ft | 436 kts | 7° |
| 2026-05-01 14:04 | 52.03530 | 9.84215 | 33992 ft | 429 kts | 7° |
| 2026-05-01 14:04 | 52.06511 | 9.84791 | 33135 ft | 434 kts | 7° |
| 2026-05-01 14:04 | 52.09533 | 9.85375 | 32312 ft | 439 kts | 7° |
| 2026-05-01 14:04 | 52.12575 | 9.85965 | 31760 ft | 438 kts | 7° |
| 2026-05-01 14:05 | 52.15556 | 9.86543 | 31199 ft | 436 kts | 7° |
| 2026-05-01 14:05 | 52.18569 | 9.87128 | 30718 ft | 434 kts | 7° |
| 2026-05-01 14:05 | 52.21554 | 9.87708 | 30232 ft | 431 kts | 7° |
| 2026-05-01 14:05 | 52.24519 | 9.88290 | 29722 ft | 427 kts | 8° |
| 2026-05-01 14:06 | 52.27418 | 9.89205 | 29224 ft | 421 kts | 15° |
| 2026-05-01 14:06 | 52.30230 | 9.90436 | 28790 ft | 416 kts | 16° |
| 2026-05-01 14:06 | 52.33000 | 9.91728 | 28347 ft | 411 kts | 17° |
| 2026-05-01 14:06 | 52.35739 | 9.93007 | 27900 ft | 407 kts | 17° |
| 2026-05-01 14:07 | 52.38464 | 9.94257 | 27473 ft | 403 kts | 17° |
| 2026-05-01 14:07 | 52.41162 | 9.95472 | 27035 ft | 400 kts | 17° |
| 2026-05-01 14:07 | 52.43838 | 9.96663 | 26615 ft | 397 kts | 16° |
| 2026-05-01 14:08 | 52.49092 | 9.98993 | 25791 ft | 390 kts | 17° |
| 2026-05-01 14:08 | 52.51724 | 9.99993 | 25455 ft | 387 kts | 8° |
| 2026-05-01 14:08 | 52.54406 | 10.00130 | 25221 ft | 384 kts | 357° |
| 2026-05-01 14:08 | 52.57093 | 9.99555 | 25015 ft | 395 kts | 352° |
| 2026-05-01 14:09 | 52.59836 | 9.98857 | 24782 ft | 402 kts | 352° |
| 2026-05-01 14:09 | 52.62602 | 9.98134 | 24542 ft | 402 kts | 352° |
| 2026-05-01 14:09 | 52.65358 | 9.97417 | 24302 ft | 400 kts | 353° |
| 2026-05-01 14:09 | 52.68102 | 9.96717 | 24068 ft | 398 kts | 353° |
| 2026-05-01 14:10 | 52.70834 | 9.96030 | 23824 ft | 396 kts | 352° |
| 2026-05-01 14:10 | 52.73552 | 9.95351 | 23551 ft | 394 kts | 353° |
| 2026-05-01 14:10 | 52.76265 | 9.94674 | 23263 ft | 393 kts | 352° |
| 2026-05-01 14:10 | 52.78955 | 9.94010 | 22995 ft | 391 kts | 352° |
| 2026-05-01 14:11 | 52.81643 | 9.93347 | 22728 ft | 390 kts | 353° |
| 2026-05-01 14:11 | 52.86992 | 9.92024 | 22190 ft | 388 kts | 352° |
| 2026-05-01 14:11 | 52.89659 | 9.91362 | 21930 ft | 387 kts | 352° |
| 2026-05-01 14:12 | 52.92284 | 9.90710 | 21667 ft | 386 kts | 352° |
| 2026-05-01 14:12 | 52.94945 | 9.90048 | 21243 ft | 390 kts | 352° |
| 2026-05-01 14:12 | 52.97642 | 9.89378 | 20739 ft | 391 kts | 352° |
| 2026-05-01 14:12 | 53.00327 | 9.88709 | 20250 ft | 390 kts | 352° |
| 2026-05-01 14:13 | 53.03011 | 9.88039 | 19763 ft | 389 kts | 352° |
| 2026-05-01 14:13 | 53.04818 | 9.87587 | 19435 ft | 388 kts | 352° |
| 2026-05-01 14:13 | 53.08358 | 9.86701 | 18809 ft | 386 kts | 352° |
| 2026-05-01 14:13 | 53.11014 | 9.86035 | 18291 ft | 385 kts | 352° |
| 2026-05-01 14:14 | 53.13658 | 9.85372 | 17771 ft | 384 kts | 352° |
| 2026-05-01 14:14 | 53.16295 | 9.84709 | 17247 ft | 382 kts | 352° |
| 2026-05-01 14:14 | 53.18919 | 9.84049 | 16736 ft | 381 kts | 352° |
| 2026-05-01 14:14 | 53.21538 | 9.83390 | 16231 ft | 380 kts | 352° |
| 2026-05-01 14:15 | 53.24144 | 9.82732 | 15736 ft | 379 kts | 352° |
| 2026-05-01 14:15 | 53.26749 | 9.82074 | 15248 ft | 378 kts | 352° |
| 2026-05-01 14:15 | 53.29314 | 9.81426 | 14774 ft | 377 kts | 352° |
| 2026-05-01 14:15 | 53.31905 | 9.80771 | 14300 ft | 376 kts | 352° |
| 2026-05-01 14:16 | 53.34492 | 9.80115 | 13793 ft | 375 kts | 352° |
| 2026-05-01 14:16 | 53.37068 | 9.79460 | 13249 ft | 375 kts | 352° |
| 2026-05-01 14:16 | 53.39653 | 9.78801 | 12677 ft | 375 kts | 352° |
| 2026-05-01 14:16 | 53.42235 | 9.78176 | 12189 ft | 374 kts | 353° |
| 2026-05-01 14:17 | 53.44795 | 9.77567 | 11787 ft | 370 kts | 352° |
| 2026-05-01 14:17 | 53.47337 | 9.76971 | 11268 ft | 369 kts | 353° |
| 2026-05-01 14:17 | 53.49883 | 9.76393 | 10819 ft | 367 kts | 353° |
| 2026-05-01 14:17 | 53.52404 | 9.75826 | 10472 ft | 362 kts | 353° |
| 2026-05-01 14:18 | 53.54850 | 9.75192 | 10419 ft | 348 kts | 351° |
| 2026-05-01 14:18 | 53.57196 | 9.74529 | 10276 ft | 335 kts | 351° |
| 2026-05-01 14:18 | 53.59414 | 9.73878 | 10047 ft | 320 kts | 351° |
| 2026-05-01 14:18 | 53.60863 | 9.73455 | 9771 ft | 316 kts | 350° |
| 2026-05-01 14:19 | 53.63725 | 9.72649 | 9175 ft | 308 kts | 351° |
| 2026-05-01 14:19 | 53.65835 | 9.72084 | 8638 ft | 307 kts | 351° |
| 2026-05-01 14:19 | 53.67946 | 9.71544 | 8123 ft | 305 kts | 351° |
| 2026-05-01 14:19 | 53.70047 | 9.71017 | 7618 ft | 304 kts | 352° |
| 2026-05-01 14:20 | 53.72125 | 9.70504 | 7127 ft | 301 kts | 351° |
| 2026-05-01 14:20 | 53.76264 | 9.69509 | 6095 ft | 298 kts | 352° |
| 2026-05-01 14:20 | 53.78291 | 9.69041 | 5592 ft | 296 kts | 356° |
| 2026-05-01 14:21 | 53.80310 | 9.69438 | 5074 ft | 292 kts | 24° |
| 2026-05-01 14:21 | 53.81926 | 9.71363 | 4607 ft | 282 kts | 54° |
| 2026-05-01 14:21 | 53.82753 | 9.74243 | 4312 ft | 265 kts | 81° |
| 2026-05-01 14:22 | 53.82070 | 9.79903 | 3830 ft | 237 kts | 123° |
| 2026-05-01 14:22 | 53.81192 | 9.82186 | 3693 ft | 224 kts | 124° |
| 2026-05-01 14:22 | 53.80348 | 9.84280 | 3533 ft | 210 kts | 130° |
| 2026-05-01 14:22 | 53.79149 | 9.85712 | 3049 ft | 214 kts | 156° |
| 2026-05-01 14:23 | 53.77870 | 9.86737 | 2914 ft | 200 kts | 153° |
| 2026-05-01 14:23 | 53.76664 | 9.87781 | 2686 ft | 190 kts | 152° |
| 2026-05-01 14:23 | 53.75507 | 9.88785 | 2323 ft | 183 kts | 152° |
| 2026-05-01 14:23 | 53.74404 | 9.89733 | 2043 ft | 174 kts | 152° |
| 2026-05-01 14:24 | 53.73351 | 9.90653 | 1811 ft | 163 kts | 152° |
| 2026-05-01 14:24 | 53.72360 | 9.91498 | 1561 ft | 155 kts | 151° |
| 2026-05-01 14:24 | 53.71437 | 9.92331 | 1328 ft | 144 kts | 152° |
| 2026-05-01 14:24 | 53.70562 | 9.93090 | 1175 ft | 139 kts | 152° |
| 2026-05-01 14:25 | 53.69715 | 9.93826 | 1028 ft | 137 kts | 152° |
| 2026-05-01 14:25 | 53.68884 | 9.94538 | 846 ft | 135 kts | 152° |
| 2026-05-01 14:25 | 53.68005 | 9.95298 | 643 ft | 149 kts | 154° |
| 2026-05-01 14:25 | 53.67084 | 9.96097 | 437 ft | 148 kts | 153° |
| 2026-05-01 14:26 | 53.66180 | 9.96876 | 254 ft | 143 kts | 152° |
| 2026-05-01 14:26 | 53.64551 | 9.98295 | 38 ft | 104 kts | 153° |
| 2026-05-01 14:26 | 53.64039 | 9.98734 | 40 ft | 62 kts | 153° |
| 2026-05-01 14:27 | 53.63776 | 9.98962 | 40 ft | 32 kts | 153° |
| 2026-05-01 14:27 | 53.63589 | 9.99123 | 43 ft | 29 kts | 153° |
| 2026-05-01 14:27 | 53.63416 | 9.99273 | 44 ft | 26 kts | 153° |
| 2026-05-01 14:28 | 53.63281 | 9.99625 | 43 ft | 7 kts | 99° |
| 2026-05-01 14:28 | 53.63275 | 9.99678 | 44 ft | 0 kts | 99° |
| 2026-05-01 14:29 | 53.63273 | 9.99700 | 44 ft | 4 kts | 99° |
| 2026-05-01 14:29 | 53.63282 | 9.99768 | 44 ft | 7 kts | 53° |
| 2026-05-01 14:30 | 53.63412 | 10.00031 | 45 ft | 8 kts | 51° |
| 2026-05-01 14:30 | 53.63442 | 10.00108 | 45 ft | 6 kts | 68° |
| 2026-05-01 14:30 | 53.63446 | 10.00140 | 43 ft | 0 kts | 85° |
| 2026-05-01 14:31 | 53.63450 | 10.00312 | 44 ft | 0 kts | 89° |